Time;durP1;ratioP1;P1;durP2;ratioP2;P2;SDS_P1;SDS_P2;PMS_P1;PMS_P2;Temp;Humidity;BMP_temperature;BMP_pressure;BME280_temperature;BME280_humidity;BME280_pressure;Samples;Min_cycle;Max_cycle;Signal;HPM_P1;HPM_P2
2023/12/30 00:00:46;;;;;;;66.38;40.53;;;;;;;1.53;100.00;93349.63;5049952;28;20051;-72
2023/12/30 00:03:13;;;;;;;40.45;27.08;;;;;;;1.60;100.00;93363.28;5050505;28;20044;-72
2023/12/30 00:05:39;;;;;;;39.88;25.75;;;;;;;1.52;100.00;93360.69;5048767;28;20051;-72
2023/12/30 00:08:08;;;;;;;29.42;20.92;;;;;;;1.50;100.00;93365.13;5048828;28;20045;-72
2023/12/30 00:10:35;;;;;;;31.35;19.45;;;;;;;1.49;100.00;93370.31;5055113;28;20042;-72
2023/12/30 00:13:02;;;;;;;28.25;18.23;;;;;;;1.52;100.00;93364.97;5062460;28;20040;-72
2023/12/30 00:15:29;;;;;;;25.42;18.85;;;;;;;1.49;100.00;93372.84;5047726;28;20498;-72
2023/12/30 00:17:56;;;;;;;30.30;20.13;;;;;;;1.32;100.00;93349.97;5057851;28;20052;-72
2023/12/30 00:20:25;;;;;;;28.92;18.55;;;;;;;1.42;100.00;93365.06;5052301;28;20516;-72
2023/12/30 00:22:52;;;;;;;23.55;15.85;;;;;;;1.38;100.00;93374.69;5045341;28;20115;-72
2023/12/30 00:25:22;;;;;;;26.83;17.13;;;;;;;1.41;100.00;93368.53;5051449;28;20041;-72
2023/12/30 00:27:51;;;;;;;29.90;18.60;;;;;;;1.44;100.00;93363.19;5056136;28;20060;-72
2023/12/30 00:30:18;;;;;;;33.95;20.92;;;;;;;1.42;100.00;93370.94;5056423;28;20048;-72
2023/12/30 00:32:45;;;;;;;33.22;20.58;;;;;;;1.41;100.00;93363.47;5057030;28;20178;-72
2023/12/30 00:35:12;;;;;;;30.30;19.85;;;;;;;1.37;100.00;93360.47;5049095;28;20787;-72
2023/12/30 00:37:39;;;;;;;32.38;21.08;;;;;;;1.44;100.00;93378.38;5049700;28;20048;-72
2023/12/30 00:40:07;;;;;;;31.80;21.42;;;;;;;1.44;100.00;93375.84;5048273;28;20044;-72
2023/12/30 00:42:35;;;;;;;31.73;20.98;;;;;;;1.37;100.00;93364.72;5048296;28;20053;-72
2023/12/30 00:45:02;;;;;;;29.33;19.55;;;;;;;1.41;100.00;93363.47;5046935;28;20045;-72
2023/12/30 00:47:29;;;;;;;32.45;21.30;;;;;;;1.49;100.00;93367.78;5051616;28;20189;-72
2023/12/30 00:49:56;;;;;;;31.23;19.92;;;;;;;1.52;100.00;93372.56;5047646;28;20501;-72
2023/12/30 00:52:23;;;;;;;28.42;18.38;;;;;;;1.51;100.00;93370.97;5049704;28;20395;-71
2023/12/30 00:54:50;;;;;;;29.00;18.55;;;;;;;1.52;100.00;93378.41;5058709;28;20049;-71
2023/12/30 00:57:17;;;;;;;26.35;17.88;;;;;;;1.51;100.00;93371.75;5059881;28;20408;-72
2023/12/30 00:59:45;;;;;;;30.30;19.30;;;;;;;1.50;100.00;93371.91;5053752;28;20140;-71
2023/12/30 01:02:12;;;;;;;32.40;22.65;;;;;;;1.48;100.00;93374.59;5055422;28;20149;-72
2023/12/30 01:04:39;;;;;;;31.13;20.98;;;;;;;1.43;100.00;93379.34;5054793;28;20041;-72
2023/12/30 01:07:06;;;;;;;32.67;21.40;;;;;;;1.45;100.00;93372.38;5050813;28;20163;-71
2023/12/30 01:09:33;;;;;;;33.13;21.77;;;;;;;1.42;100.00;93370.94;5060024;28;20127;-71
2023/12/30 01:12:00;;;;;;;27.42;19.92;;;;;;;1.40;100.00;93382.16;5056558;28;20395;-72
2023/12/30 01:14:27;;;;;;;29.63;21.27;;;;;;;1.39;100.00;93383.88;5053248;28;20469;-72
2023/12/30 01:16:55;;;;;;;27.38;19.60;;;;;;;1.32;100.00;93393.00;5053250;28;20048;-71
2023/12/30 01:19:23;;;;;;;23.02;16.65;;;;;;;1.27;100.00;93390.94;5055555;28;20589;-72
2023/12/30 01:21:50;;;;;;;21.58;15.45;;;;;;;1.17;100.00;93387.69;5050804;28;20143;-72
2023/12/30 01:24:19;;;;;;;22.30;14.40;;;;;;;1.10;100.00;93384.94;5053697;28;20120;-73
2023/12/30 01:26:53;;;;;;;19.17;13.45;;;;;;;0.98;100.00;93378.53;5052674;28;20044;-72
2023/12/30 01:29:20;;;;;;;21.60;14.13;;;;;;;1.03;100.00;93386.47;5053795;28;20228;-72
2023/12/30 01:31:47;;;;;;;21.80;14.18;;;;;;;1.04;100.00;93383.81;5060484;28;20057;-72
2023/12/30 01:34:15;;;;;;;20.58;15.05;;;;;;;1.00;100.00;93376.66;5054604;28;20413;-72
2023/12/30 01:36:44;;;;;;;21.15;13.70;;;;;;;0.98;100.00;93376.81;5051541;28;20053;-72
2023/12/30 01:39:13;;;;;;;19.83;12.60;;;;;;;0.97;100.00;93377.72;5053164;28;20048;-72
2023/12/30 01:41:40;;;;;;;18.88;11.73;;;;;;;0.92;100.00;93365.53;5050478;28;20049;-72
2023/12/30 01:44:06;;;;;;;15.50;10.93;;;;;;;0.92;100.00;93373.13;5062049;28;20413;-72
2023/12/30 01:46:33;;;;;;;16.67;10.88;;;;;;;0.92;100.00;93373.13;5059731;28;20041;-72
2023/12/30 01:49:00;;;;;;;18.23;10.27;;;;;;;0.97;100.00;93371.91;5060657;28;20053;-72
2023/12/30 01:51:29;;;;;;;19.50;15.05;;;;;;;0.92;100.00;93367.25;5062377;28;20049;-73
2023/12/30 01:53:58;;;;;;;22.98;17.20;;;;;;;0.86;100.00;93373.72;5060247;28;20048;-73
2023/12/30 01:56:26;;;;;;;41.13;24.60;;;;;;;0.81;100.00;93360.72;5051621;28;20044;-73
2023/12/30 01:58:54;;;;;;;37.33;25.83;;;;;;;0.83;100.00;93363.88;5050759;28;20057;-73
2023/12/30 02:01:22;;;;;;;37.83;24.23;;;;;;;0.78;100.00;93344.09;5060293;28;20047;-73
2023/12/30 02:03:52;;;;;;;49.85;32.10;;;;;;;0.56;100.00;93309.16;5058093;28;20055;-73
2023/12/30 02:06:19;;;;;;;39.97;25.83;;;;;;;0.79;100.00;93349.94;5052082;28;20060;-73
2023/12/30 02:08:48;;;;;;;36.30;25.25;;;;;;;0.77;100.00;93351.81;5051288;28;20106;-73
2023/12/30 02:11:16;;;;;;;38.10;26.45;;;;;;;0.82;100.00;93358.97;5054790;28;20835;-73
2023/12/30 02:13:43;;;;;;;36.75;25.73;;;;;;;0.81;100.00;93355.66;5061115;28;20581;-73
2023/12/30 02:16:10;;;;;;;39.60;25.17;;;;;;;0.78;100.00;93350.88;5057009;28;20584;-73
2023/12/30 02:18:38;;;;;;;39.08;25.23;;;;;;;0.76;100.00;93352.75;5065231;28;20040;-73
2023/12/30 02:21:05;;;;;;;38.10;25.02;;;;;;;0.77;100.00;93349.28;5063635;28;20403;-73
2023/12/30 02:23:33;;;;;;;34.38;23.63;;;;;;;0.64;100.00;93327.69;5053513;28;20048;-73
2023/12/30 02:26:00;;;;;;;34.72;22.88;;;;;;;0.66;100.00;93338.47;5055975;28;20144;-73
2023/12/30 02:28:27;;;;;;;35.58;22.27;;;;;;;0.69;100.00;93344.19;5051824;28;20837;-73
2023/12/30 02:30:54;;;;;;;33.47;23.00;;;;;;;0.65;100.00;93351.25;5065973;28;20167;-73
2023/12/30 02:33:21;;;;;;;34.80;24.02;;;;;;;0.49;100.00;93329.16;5063141;28;20180;-73
2023/12/30 02:35:48;;;;;;;35.47;25.15;;;;;;;0.57;100.00;93349.47;5049697;28;20053;-73
2023/12/30 02:38:15;;;;;;;38.00;25.40;;;;;;;0.56;100.00;93352.13;5058501;28;20949;-72
2023/12/30 02:40:44;;;;;;;39.17;25.35;;;;;;;0.44;100.00;93341.41;5055369;28;20862;-72
2023/12/30 02:43:11;;;;;;;38.70;25.73;;;;;;;0.57;100.00;93357.03;5062389;28;20055;-73
2023/12/30 02:45:38;;;;;;;34.42;24.30;;;;;;;0.51;100.00;93339.94;5054558;28;20087;-73
2023/12/30 02:48:06;;;;;;;38.05;23.83;;;;;;;0.43;100.00;93345.69;5051678;28;20048;-73
2023/12/30 02:50:33;;;;;;;34.88;23.15;;;;;;;0.50;100.00;93341.66;5058051;28;20048;-73
2023/12/30 02:53:00;;;;;;;34.03;24.20;;;;;;;0.52;100.00;93344.81;5050811;28;20049;-73
2023/12/30 02:55:27;;;;;;;36.53;24.73;;;;;;;0.51;100.00;93342.47;5049783;28;20067;-73
2023/12/30 02:57:55;;;;;;;34.72;20.80;;;;;;;0.36;100.00;93325.25;5053648;28;20053;-73
2023/12/30 03:00:22;;;;;;;31.42;22.05;;;;;;;0.46;100.00;93342.09;5052478;28;20132;-73
2023/12/30 03:02:49;;;;;;;31.92;21.10;;;;;;;0.46;100.00;93340.34;5058427;28;20059;-73
2023/12/30 03:05:17;;;;;;;30.35;20.58;;;;;;;0.48;100.00;93341.00;5051545;28;20048;-72
2023/12/30 03:07:43;;;;;;;37.42;24.25;;;;;;;0.46;100.00;93340.34;5056792;28;20131;-73
2023/12/30 03:10:11;;;;;;;29.45;21.60;;;;;;;0.37;100.00;93328.59;5051795;28;20049;-73
2023/12/30 03:12:38;;;;;;;45.67;29.25;;;;;;;0.38;100.00;93330.19;5050513;28;20851;-73
2023/12/30 03:15:10;;;;;;;36.47;26.70;;;;;;;0.30;100.00;93332.59;5053912;28;20078;-73
2023/12/30 03:17:37;;;;;;;38.33;24.67;;;;;;;0.25;100.00;93323.75;5051642;28;20045;-73
2023/12/30 03:20:09;;;;;;;31.75;22.38;;;;;;;0.22;100.00;93323.22;5059160;28;20049;-73
2023/12/30 03:22:36;;;;;;;32.22;21.05;;;;;;;0.06;100.00;93304.47;5057705;28;20044;-73
2023/12/30 03:25:03;;;;;;;36.15;24.00;;;;;;;0.18;100.00;93327.75;5059963;28;20135;-73
2023/12/30 03:27:30;;;;;;;34.88;23.30;;;;;;;0.23;100.00;93328.13;5052451;28;20045;-72
2023/12/30 03:29:58;;;;;;;31.90;23.02;;;;;;;0.28;100.00;93326.91;5054217;28;20056;-72
2023/12/30 03:32:28;;;;;;;35.10;23.35;;;;;;;0.35;100.00;93331.25;5054009;28;20391;-72
2023/12/30 03:34:55;;;;;;;32.40;22.67;;;;;;;0.32;100.00;93329.00;5056719;28;20865;-73
2023/12/30 03:37:23;;;;;;;40.10;27.30;;;;;;;0.34;100.00;93332.19;5052676;28;20052;-73
2023/12/30 03:39:49;;;;;;;44.28;29.08;;;;;;;0.33;100.00;93332.34;5054610;28;20047;-72
2023/12/30 03:42:16;;;;;;;37.50;26.42;;;;;;;0.32;100.00;93345.91;5055296;28;20052;-72
2023/12/30 03:44:43;;;;;;;34.08;23.27;;;;;;;0.29;100.00;93347.00;5059282;28;20530;-72
2023/12/30 03:47:10;;;;;;;36.25;24.45;;;;;;;0.23;100.00;93340.00;5050047;28;20045;-73
2023/12/30 03:49:38;;;;;;;41.78;27.17;;;;;;;0.27;100.00;93348.84;5050560;28;20132;-73
2023/12/30 03:52:05;;;;;;;35.92;24.15;;;;;;;0.24;100.00;93354.19;5058849;28;20543;-72
2023/12/30 03:54:35;;;;;;;42.90;28.58;;;;;;;0.17;100.00;93351.44;5051341;28;20037;-73
2023/12/30 03:57:05;;;;;;;41.25;28.67;;;;;;;0.20;100.00;93350.38;5050862;28;20056;-73
2023/12/30 03:59:31;;;;;;;40.88;27.45;;;;;;;0.15;100.00;93350.81;5050865;28;20055;-73
2023/12/30 04:01:58;;;;;;;41.20;26.45;;;;;;;0.13;100.00;93345.06;5047492;28;20413;-73
2023/12/30 04:04:25;;;;;;;48.03;28.67;;;;;;;0.22;100.00;93351.81;5052433;28;20045;-73
2023/12/30 04:06:54;;;;;;;41.10;27.05;;;;;;;0.22;100.00;93354.34;5047990;28;20056;-71
2023/12/30 04:09:20;;;;;;;43.53;27.98;;;;;;;0.17;100.00;93350.63;5057581;28;20124;-72
2023/12/30 04:11:47;;;;;;;45.65;29.30;;;;;;;0.24;100.00;93349.94;5054460;28;20040;-72
2023/12/30 04:14:14;;;;;;;42.17;26.33;;;;;;;0.29;100.00;93348.72;5050354;28;20404;-72
2023/12/30 04:16:41;;;;;;;36.90;26.58;;;;;;;0.31;100.00;93354.41;5053428;28;20441;-72
2023/12/30 04:19:08;;;;;;;30.10;20.98;;;;;;;0.24;100.00;93346.63;5047389;28;20051;-72
2023/12/30 04:21:35;;;;;;;38.20;25.40;;;;;;;0.25;100.00;93348.22;5050657;28;20072;-72
2023/12/30 04:24:04;;;;;;;35.72;22.77;;;;;;;0.20;100.00;93341.06;5050437;28;20362;-72
2023/12/30 04:26:31;;;;;;;29.13;20.83;;;;;;;0.17;100.00;93340.53;5048916;28;20048;-72
2023/12/30 04:28:58;;;;;;;30.02;22.17;;;;;;;0.01;100.00;93318.44;5050243;28;20498;-72
2023/12/30 04:31:25;;;;;;;30.38;21.30;;;;;;;0.15;100.00;93343.22;5060519;28;20059;-72
2023/12/30 04:33:51;;;;;;;31.42;21.42;;;;;;;0.13;100.00;93345.88;5056318;28;20056;-72
2023/12/30 04:36:18;;;;;;;32.33;21.75;;;;;;;0.02;100.00;93335.97;5059260;28;20108;-72
2023/12/30 04:38:45;;;;;;;32.17;21.33;;;;;;;0.09;100.00;93358.94;5053371;28;20044;-72
2023/12/30 04:41:14;;;;;;;29.42;20.67;;;;;;;0.09;100.00;93364.00;5051204;28;20049;-72
2023/12/30 04:43:40;;;;;;;32.50;21.23;;;;;;;0.07;100.00;93360.81;5053194;28;20047;-72
2023/12/30 04:46:07;;;;;;;32.67;22.27;;;;;;;0.08;100.00;93368.25;5052472;28;20049;-73
2023/12/30 04:48:34;;;;;;;35.55;23.38;;;;;;;-0.05;100.00;93355.16;5055769;28;20045;-73
2023/12/30 04:51:01;;;;;;;35.47;23.95;;;;;;;-0.04;100.00;93377.72;5058884;28;20057;-72
2023/12/30 04:53:28;;;;;;;47.80;30.55;;;;;;;-0.10;100.00;93380.03;5052913;28;20499;-72
2023/12/30 04:55:55;;;;;;;65.40;40.95;;;;;;;-0.13;100.00;93383.66;5056487;28;20045;-71
2023/12/30 04:58:23;;;;;;;113.25;66.90;;;;;;;-0.09;100.00;93389.19;5057996;28;20053;-71
2023/12/30 05:00:50;;;;;;;90.95;52.67;;;;;;;-0.10;100.00;93388.41;5050719;28;20418;-72
2023/12/30 05:03:18;;;;;;;68.97;40.15;;;;;;;-0.04;100.00;93392.88;5053336;28;20045;-72
2023/12/30 05:05:45;;;;;;;54.40;34.45;;;;;;;-0.06;100.00;93387.19;5052742;28;20051;-72
2023/12/30 05:08:12;;;;;;;52.05;33.10;;;;;;;-0.06;100.00;93391.44;5052494;28;20048;-72
2023/12/30 05:10:39;;;;;;;61.72;39.22;;;;;;;-0.06;100.00;93396.47;5056993;28;20067;-72
2023/12/30 05:13:06;;;;;;;62.88;40.35;;;;;;;-0.05;100.00;93403.94;5053753;28;20052;-72
2023/12/30 05:15:34;;;;;;;86.00;54.15;;;;;;;-0.02;100.00;93402.84;5056446;28;20053;-72
2023/12/30 05:18:01;;;;;;;106.18;63.83;;;;;;;-0.23;100.00;93377.84;5051920;28;20417;-72
2023/12/30 05:20:28;;;;;;;80.90;51.03;;;;;;;-0.12;100.00;93399.56;5051665;28;20391;-72
2023/12/30 05:22:55;;;;;;;62.33;40.00;;;;;;;-0.15;100.00;93393.88;5060949;28;20148;-72
2023/12/30 05:25:22;;;;;;;63.05;40.42;;;;;;;-0.14;100.00;93382.84;5054664;28;20052;-72
2023/12/30 05:27:49;;;;;;;58.05;38.30;;;;;;;-0.12;100.00;93385.22;5052363;28;20501;-72
2023/12/30 05:30:16;;;;;;;50.92;33.25;;;;;;;-0.18;100.00;93381.50;5052694;28;20048;-72
2023/12/30 05:32:44;;;;;;;52.72;34.83;;;;;;;-0.14;100.00;93382.84;5057932;28;20054;-72
2023/12/30 05:35:11;;;;;;;52.35;35.67;;;;;;;-0.07;100.00;93393.19;5056779;28;20231;-72
2023/12/30 05:37:38;;;;;;;53.38;35.38;;;;;;;-0.10;100.00;93393.44;5056241;28;20123;-72
2023/12/30 05:40:07;;;;;;;56.28;36.15;;;;;;;-0.09;100.00;93397.56;5053796;28;20053;-72
2023/12/30 05:42:34;;;;;;;59.03;36.70;;;;;;;-0.14;100.00;93399.69;5049893;28;20091;-72
2023/12/30 05:45:01;;;;;;;56.35;37.20;;;;;;;-0.13;100.00;93406.38;5051836;28;20048;-72
2023/12/30 05:47:27;;;;;;;55.05;36.72;;;;;;;-0.18;100.00;93400.94;5057889;28;20155;-72
2023/12/30 05:49:56;;;;;;;64.85;39.78;;;;;;;-0.24;100.00;93398.97;5050502;28;20044;-72
2023/12/30 05:52:23;;;;;;;66.32;42.35;;;;;;;-0.34;100.00;93386.38;5053422;28;20140;-71
2023/12/30 05:54:50;;;;;;;65.57;43.13;;;;;;;-0.33;100.00;93395.56;5058573;28;20041;-72
2023/12/30 05:57:17;;;;;;;62.85;40.03;;;;;;;-0.56;100.00;93365.56;5051170;28;20083;-72
2023/12/30 05:59:44;;;;;;;65.15;44.33;;;;;;;-0.36;100.00;93400.84;5052268;28;20055;-72
2023/12/30 06:02:11;;;;;;;67.25;44.28;;;;;;;-0.42;100.00;93399.66;5049901;28;20410;-72
2023/12/30 06:04:40;;;;;;;61.97;40.90;;;;;;;-0.40;100.00;93405.38;5051576;28;20051;-72
2023/12/30 06:07:08;;;;;;;69.30;43.53;;;;;;;-0.33;100.00;93413.22;5055704;28;20043;-72
2023/12/30 06:09:35;;;;;;;103.55;52.50;;;;;;;-0.31;100.00;93408.81;5056640;28;20049;-72
2023/12/30 06:12:02;;;;;;;133.27;60.88;;;;;;;-0.38;100.00;93398.47;5049167;28;20055;-72
2023/12/30 06:14:29;;;;;;;96.10;46.13;;;;;;;-0.35;100.00;93403.25;5065071;28;20052;-72
2023/12/30 06:16:56;;;;;;;100.28;50.03;;;;;;;-0.36;100.00;93396.63;5054701;28;20060;-72
2023/12/30 06:19:23;;;;;;;73.72;37.60;;;;;;;-0.37;100.00;93399.28;5054040;28;20056;-72
2023/12/30 06:21:50;;;;;;;48.60;27.38;;;;;;;-0.50;100.00;93384.44;5050276;28;20059;-72
2023/12/30 06:24:19;;;;;;;50.58;35.70;;;;;;;-0.33;100.00;93408.94;5050903;28;20037;-72
2023/12/30 06:26:45;;;;;;;59.78;45.15;;;;;;;-0.35;100.00;93410.81;5050366;28;20059;-72
2023/12/30 06:29:12;;;;;;;61.22;39.42;;;;;;;-0.36;100.00;93409.25;5056438;28;20040;-72
2023/12/30 06:31:41;;;;;;;96.35;63.85;;;;;;;-0.74;100.00;93368.03;5055797;28;20045;-72
2023/12/30 06:34:09;;;;;;;140.15;83.35;;;;;;;-0.45;100.00;93405.00;5051662;28;20179;-72
2023/12/30 06:36:36;;;;;;;98.88;63.95;;;;;;;-0.34;100.00;93417.47;5051577;28;20234;-72
2023/12/30 06:39:04;;;;;;;80.43;50.33;;;;;;;-0.35;100.00;93428.50;5049130;28;20044;-72
2023/12/30 06:41:33;;;;;;;73.10;46.63;;;;;;;-0.35;100.00;93412.53;5049977;28;20056;-72
2023/12/30 06:44:00;;;;;;;79.90;49.03;;;;;;;-0.45;100.00;93407.53;5053010;28;20052;-72
2023/12/30 06:46:28;;;;;;;83.40;53.25;;;;;;;-0.25;100.00;93435.22;5049798;28;20927;-72
2023/12/30 06:48:55;;;;;;;75.93;51.20;;;;;;;-0.26;100.00;93436.97;5054874;28;20781;-72
2023/12/30 06:51:22;;;;;;;74.00;49.75;;;;;;;-0.30;100.00;93438.97;5050551;28;20072;-72
2023/12/30 06:53:49;;;;;;;78.60;49.30;;;;;;;-0.24;100.00;93444.41;5047995;28;20067;-72
2023/12/30 06:56:16;;;;;;;75.10;49.00;;;;;;;-0.24;100.00;93447.72;5047976;28;20075;-72
2023/12/30 06:58:45;;;;;;;67.47;47.50;;;;;;;-0.17;100.00;93453.03;5050709;28;20115;-72
2023/12/30 07:01:12;;;;;;;73.70;49.95;;;;;;;-0.13;100.00;93441.72;5052894;28;20418;-72
2023/12/30 07:03:39;;;;;;;75.85;50.35;;;;;;;-0.12;100.00;93448.34;5050944;28;20040;-72
2023/12/30 07:06:06;;;;;;;70.68;49.47;;;;;;;-0.07;100.00;93455.50;5057755;28;20048;-72
2023/12/30 07:08:33;;;;;;;72.00;49.17;;;;;;;-0.05;100.00;93459.47;5047772;28;20052;-72
2023/12/30 07:11:00;;;;;;;69.13;48.80;;;;;;;0.00;100.00;93459.09;5051605;28;20059;-73
2023/12/30 07:13:27;;;;;;;88.88;55.88;;;;;;;0.02;100.00;93466.50;5053973;28;20059;-73
2023/12/30 07:15:55;;;;;;;94.35;59.97;;;;;;;0.12;100.00;93474.84;5053220;28;20052;-72
2023/12/30 07:18:22;;;;;;;106.30;64.13;;;;;;;0.16;100.00;93475.34;5047799;28;20052;-73
2023/12/30 07:20:49;;;;;;;103.43;65.53;;;;;;;0.26;100.00;93476.94;5049554;28;20478;-72
2023/12/30 07:23:16;;;;;;;101.50;61.80;;;;;;;0.36;100.00;93478.59;5051405;28;20049;-72
2023/12/30 07:25:43;;;;;;;88.97;60.58;;;;;;;0.47;100.00;93475.09;5049917;28;20147;-72
2023/12/30 07:28:10;;;;;;;93.32;62.92;;;;;;;0.56;100.00;93476.78;5052038;28;20051;-72
2023/12/30 07:30:37;;;;;;;96.70;60.25;;;;;;;0.69;100.00;93471.38;5053829;28;20054;-72
2023/12/30 07:33:05;;;;;;;84.05;56.60;;;;;;;0.78;100.00;93473.06;5054457;28;20422;-73
2023/12/30 07:35:32;;;;;;;103.55;69.53;;;;;;;0.93;100.00;93478.41;5049552;28;20043;-73
2023/12/30 07:37:59;;;;;;;101.10;67.25;;;;;;;1.01;100.00;93476.88;5047139;28;20052;-73
2023/12/30 07:40:26;;;;;;;106.00;69.63;;;;;;;1.12;100.00;93476.69;5053963;28;20070;-73
2023/12/30 07:42:53;;;;;;;115.10;74.43;;;;;;;1.21;100.00;93485.16;5052279;28;20036;-73
2023/12/30 07:45:20;;;;;;;119.68;78.43;;;;;;;1.30;100.00;93488.53;5050974;28;20589;-73
2023/12/30 07:47:47;;;;;;;126.18;83.93;;;;;;;1.31;100.00;93483.31;5048001;28;20052;-73
2023/12/30 07:50:15;;;;;;;129.88;86.03;;;;;;;1.29;100.00;93470.03;5050807;28;20518;-73
2023/12/30 07:52:42;;;;;;;121.60;81.88;;;;;;;1.47;100.00;93484.38;5053414;28;20521;-73
2023/12/30 07:55:09;;;;;;;101.97;69.40;;;;;;;1.38;100.00;93475.94;5051564;28;20045;-72
2023/12/30 07:57:37;;;;;;;103.57;68.15;;;;;;;1.56;100.00;93498.72;5049999;28;20140;-72
2023/12/30 08:00:06;;;;;;;103.70;68.15;;;;;;;1.58;100.00;93481.63;5056868;28;20105;-72
2023/12/30 08:02:33;;;;;;;107.47;71.28;;;;;;;1.67;100.00;93492.59;5047709;28;20048;-72
2023/12/30 08:05:01;;;;;;;108.95;69.50;;;;;;;1.81;100.00;93487.94;5053225;28;20056;-72
2023/12/30 08:07:30;;;;;;;106.25;72.55;;;;;;;1.77;100.00;93456.25;5056503;28;20118;-72
2023/12/30 08:09:58;;;;;;;102.82;67.57;;;;;;;1.97;100.00;93464.44;5060492;28;20063;-72
2023/12/30 08:12:25;;;;;;;116.88;80.55;;;;;;;2.21;100.00;93484.06;5057463;28;20497;-72
2023/12/30 08:14:51;;;;;;;122.65;84.38;;;;;;;2.34;100.00;93490.44;5056978;28;20057;-72
2023/12/30 08:17:18;;;;;;;138.30;95.72;;;;;;;2.39;100.00;93483.97;5053354;28;20497;-72
2023/12/30 08:19:46;;;;;;;105.68;73.95;;;;;;;2.53;100.00;93490.22;5057084;28;20052;-72
2023/12/30 08:22:13;;;;;;;71.15;51.28;;;;;;;2.71;100.00;93498.66;5051836;28;20687;-71
2023/12/30 08:24:40;;;;;;;80.90;54.70;;;;;;;2.85;100.00;93502.34;5054885;28;20045;-72
2023/12/30 08:27:07;;;;;;;84.05;57.15;;;;;;;2.97;100.00;93510.47;5053344;28;20063;-72
2023/12/30 08:29:52;;;;;;;87.50;59.33;;;;;;;2.93;100.00;93485.38;5054339;28;20406;-72
2023/12/30 08:32:19;;;;;;;87.63;60.20;;;;;;;3.19;100.00;93509.88;5054713;28;20051;-72
2023/12/30 08:34:46;;;;;;;84.97;59.28;;;;;;;3.27;100.00;93510.81;5051534;28;20138;-72
2023/12/30 08:37:13;;;;;;;86.53;56.85;;;;;;;3.40;100.00;93507.81;5054737;28;20123;-72
2023/12/30 08:39:42;;;;;;;86.20;57.10;;;;;;;3.55;100.00;93507.97;5056566;28;20056;-72
2023/12/30 08:42:09;;;;;;;97.47;56.13;;;;;;;3.64;100.00;93501.97;5051307;28;20111;-72
2023/12/30 08:44:40;;;;;;;66.68;44.60;;;;;;;3.78;100.00;93485.28;5053801;28;20098;-72
2023/12/30 08:47:07;;;;;;;54.50;36.65;;;;;;;4.08;100.00;93495.69;5055610;28;20044;-72
2023/12/30 08:49:34;;;;;;;51.72;32.63;;;;;;;4.20;100.00;93490.28;5056584;28;20053;-72
2023/12/30 08:52:01;;;;;;;49.80;33.15;;;;;;;4.38;100.00;93479.88;5051767;28;20056;-72
2023/12/30 08:54:34;;;;;;;75.78;52.00;;;;;;;4.45;100.00;93482.56;5050737;28;20045;-72
2023/12/30 08:57:02;;;;;;;72.60;52.03;;;;;;;4.52;100.00;93484.28;5054014;28;20059;-72
2023/12/30 08:59:29;;;;;;;83.63;58.95;;;;;;;4.45;100.00;93473.22;5051587;28;20051;-72
2023/12/30 09:01:57;;;;;;;80.20;56.28;;;;;;;4.54;100.00;93469.66;5052517;28;20422;-72
2023/12/30 09:04:24;;;;;;;72.30;48.70;;;;;;;4.68;100.00;93480.88;5050736;28;20053;-72
2023/12/30 09:06:52;;;;;;;58.30;40.38;;;;;;;4.74;100.00;93476.09;5051075;28;20052;-72
2023/12/30 09:09:19;;;;;;;43.00;29.25;;;;;;;4.66;100.00;93472.63;5054255;28;20135;-72
2023/12/30 09:11:46;;;;;;;43.13;28.45;;;;;;;4.54;100.00;93466.34;5054940;28;20045;-71
2023/12/30 09:14:14;;;;;;;62.95;31.05;;;;;;;4.56;100.00;93454.22;5051062;28;20048;-74
2023/12/30 09:16:41;;;;;;;36.13;25.77;;;;;;;4.33;100.00;93451.63;5056310;28;20044;-72
2023/12/30 09:19:08;;;;;;;28.65;20.05;;;;;;;4.33;100.00;93460.03;5052313;28;20044;-73
2023/12/30 09:21:35;;;;;;;27.30;18.75;;;;;;;4.37;100.00;93457.97;5051899;28;20052;-74
2023/12/30 09:24:02;;;;;;;29.13;19.52;;;;;;;4.49;100.00;93464.25;5055822;28;20045;-74
2023/12/30 09:26:29;;;;;;;30.92;19.35;;;;;;;4.56;100.00;93456.78;5053265;28;20053;-74
2023/12/30 09:28:56;;;;;;;27.67;19.23;;;;;;;4.61;100.00;93459.59;5052818;28;20422;-72
2023/12/30 09:31:26;;;;;;;31.83;18.45;;;;;;;4.76;100.00;93457.16;5055230;28;20052;-72
2023/12/30 09:33:53;;;;;;;30.40;18.65;;;;;;;4.89;100.00;93458.34;5054676;28;20053;-72
2023/12/30 09:36:20;;;;;;;27.42;18.55;;;;;;;4.83;100.00;93444.56;5051445;28;20049;-72
2023/12/30 09:38:47;;;;;;;31.38;18.63;;;;;;;4.82;100.00;93438.66;5056155;28;20049;-72
2023/12/30 09:41:15;;;;;;;27.92;16.70;;;;;;;4.97;100.00;93445.59;5058167;28;20140;-72
2023/12/30 09:43:43;;;;;;;29.08;16.63;;;;;;;5.09;100.00;93440.88;5052614;28;20060;-72
2023/12/30 09:46:10;;;;;;;25.52;15.35;;;;;;;5.09;100.00;93438.31;5052598;28;20041;-72
2023/12/30 09:48:53;;;;;;;24.17;15.02;;;;;;;5.05;100.00;93430.22;5059699;28;20054;-72
2023/12/30 09:51:22;;;;;;;22.55;14.95;;;;;;;5.24;100.00;93440.94;5054343;28;20041;-74
2023/12/30 09:53:49;;;;;;;29.02;17.33;;;;;;;5.22;100.00;93443.66;5049658;28;20076;-74
2023/12/30 09:56:18;;;;;;;28.17;16.45;;;;;;;5.17;100.00;93437.47;5050009;28;20049;-73
2023/12/30 09:58:45;;;;;;;27.33;15.30;;;;;;;5.30;100.00;93431.81;5052691;28;20065;-74
2023/12/30 10:01:12;;;;;;;32.55;17.20;;;;;;;5.47;100.00;93422.28;5051580;28;20502;-74
2023/12/30 10:03:41;;;;;;;29.58;17.95;;;;;;;5.58;100.00;93423.63;5051153;28;20064;-74
2023/12/30 10:06:12;;;;;;;38.83;22.52;;;;;;;5.64;100.00;93417.06;5048924;28;20486;-74
2023/12/30 10:08:39;;;;;;;54.65;25.00;;;;;;;5.51;100.00;93395.47;5055906;28;20422;-73
2023/12/30 10:11:13;;;;;;;60.70;28.60;;;;;;;5.55;100.00;93411.25;5059358;28;20063;-73
2023/12/30 10:13:40;;;;;;;59.25;29.67;;;;;;;5.70;100.00;93412.03;5055300;28;20469;-73
2023/12/30 10:16:08;;;;;;;62.22;29.67;;;;;;;5.93;100.00;93402.75;5055248;28;20135;-73
2023/12/30 10:18:36;;;;;;;66.70;31.25;;;;;;;6.07;100.00;93412.16;5052915;28;20638;-74
2023/12/30 10:21:06;;;;;;;71.60;33.58;;;;;;;6.27;100.00;93411.63;5053608;28;20045;-73
2023/12/30 10:23:34;;;;;;;65.55;33.95;;;;;;;6.31;100.00;93394.19;5049877;28;20040;-73
2023/12/30 10:28:46;;;;;;;67.07;31.58;;;;;;;6.35;100.00;93408.19;5051515;28;20053;-74
2023/12/30 10:31:18;;;;;;;68.38;33.72;;;;;;;6.46;100.00;93406.94;5051445;28;20055;-73
2023/12/30 10:33:48;;;;;;;68.55;37.00;;;;;;;6.59;100.00;93399.44;5052346;28;20048;-74
2023/12/30 10:36:17;;;;;;;78.45;40.33;;;;;;;6.47;100.00;93394.00;5050392;28;20041;-73
2023/12/30 10:38:45;;;;;;;80.63;40.05;;;;;;;5.88;100.00;93283.44;5051335;28;20048;-73
2023/12/30 10:41:14;;;;;;;80.68;40.45;;;;;;;6.61;100.00;93389.06;5050499;28;20505;-73
2023/12/30 10:43:41;;;;;;;73.13;38.92;;;;;;;6.67;100.00;93388.34;5053655;28;20072;-74
2023/12/30 10:46:11;;;;;;;71.25;35.53;;;;;;;6.71;100.00;93376.75;5057021;28;20053;-73
2023/12/30 10:48:47;;;;;;;78.38;34.42;;;;;;;6.90;100.00;93384.81;5057443;28;20064;-73
2023/12/30 10:51:16;;;;;;;56.90;28.83;;;;;;;6.85;100.00;93380.25;5049167;28;20041;-73
2023/12/30 10:53:49;;;;;;;60.17;28.48;;;;;;;6.88;100.00;93381.63;5049458;28;20045;-73
2023/12/30 10:56:23;;;;;;;54.00;25.73;;;;;;;6.85;100.00;93347.03;5049178;28;20183;-73
2023/12/30 10:58:51;;;;;;;52.15;27.58;;;;;;;6.97;100.00;93378.00;5049950;28;20063;-73
2023/12/30 11:01:20;;;;;;;60.50;27.13;;;;;;;7.05;100.00;93380.41;5050948;28;20410;-73
2023/12/30 11:03:47;;;;;;;42.28;24.23;;;;;;;7.12;100.00;93365.16;5051631;28;20053;-73
2023/12/30 11:06:25;;;;;;;45.85;25.17;;;;;;;7.24;100.00;93365.44;5053521;28;20071;-73
2023/12/30 11:08:53;;;;;;;45.60;22.88;;;;;;;7.27;100.00;93366.84;5049076;28;20167;-73
2023/12/30 11:11:20;;;;;;;40.92;19.67;;;;;;;7.28;100.00;93360.75;5050553;28;20406;-73
2023/12/30 11:13:47;;;;;;;37.28;19.35;;;;;;;7.43;100.00;93358.91;5051828;28;20044;-73
2023/12/30 11:16:15;;;;;;;29.38;16.40;;;;;;;7.44;99.75;93355.38;5054030;28;20052;-73
2023/12/30 11:18:47;;;;;;;29.48;15.77;;;;;;;7.43;100.00;93353.81;5052433;28;20049;-73